Sds Green — ICOK — position and weather

sailwx.info

Track history (hours):
 
Tides and Currents Weather Stations Pressure Air Temp Water Temp Dewpoint Dewpoint Depression Visibility Wind Speed Wind Dir Waves Ship Positions

Sds Green

Last reported at 2015-Mar-30 17:30 UTC. Time now 2015-Mar-30 17:36 UTC.
Position N 37°05' E 013°41'.

Length 108 m; draft 5.9 m.

Type: Cargo ship. MMSI: 247292200.

Date/timePositionNaut miles runAvg speedWind from/ knotsBaromVisibWave heightAir tempDewpointWater temp
2015-Mar-30 17:30N 37°05' E 013°41'5 4.8
2015-Mar-30 16:33N 37°04' E 013°46'5 5.2
2015-Mar-30 15:33N 37°01' E 013°52'7 6.6
2015-Mar-30 14:33N 36°58' E 013°59'6 6.4
2015-Mar-30 13:33N 36°54' E 014°06'7 6.6
2015-Mar-30 12:34N 36°51' E 014°13'7 7.1
2015-Mar-30 11:33N 36°48' E 014°20'8 7.8
2015-Mar-30 10:33N 36°44' E 014°29'8 8.2
2015-Mar-30 09:33N 36°41' E 014°39'  
Track history (hours):
 
Tides and Currents Weather Stations Pressure Air Temp Water Temp Dewpoint Dewpoint Depression Visibility Wind Speed Wind Dir Waves Ship Positions

Sds Green

Last reported at 2015-Mar-30 17:30 UTC. Time now 2015-Mar-30 17:36 UTC.
Position N 37°05' E 013°41'.

Length 108 m; draft 5.9 m.

Type: Cargo ship. MMSI: 247292200.

Date/timePositionNaut miles runAvg speedWind from/ knotsBaromVisibWave heightAir tempDewpointWater temp
2015-Mar-30 17:30N 37°05' E 013°41'5 4.8
2015-Mar-30 16:33N 37°04' E 013°46'5 5.2
2015-Mar-30 15:33N 37°01' E 013°52'7 6.6
2015-Mar-30 14:33N 36°58' E 013°59'6 6.4
2015-Mar-30 13:33N 36°54' E 014°06'7 6.6
2015-Mar-30 12:34N 36°51' E 014°13'7 7.1
2015-Mar-30 11:33N 36°48' E 014°20'8 7.8
2015-Mar-30 10:33N 36°44' E 014°29'8 8.2
2015-Mar-30 09:33N 36°41' E 014°39'  

Dump ship's entire track history